sensor_id;sensor_type;location;lat;lon;timestamp;temperature;humidity
76120;DHT22;64852;48.092;-1.640;2023-01-29T00:01:42;8.90;90.70
76120;DHT22;64852;48.092;-1.640;2023-01-29T00:04:07;8.90;90.70
76120;DHT22;64852;48.092;-1.640;2023-01-29T00:06:33;8.90;90.70
76120;DHT22;64852;48.092;-1.640;2023-01-29T00:08:59;8.90;90.10
76120;DHT22;64852;48.092;-1.640;2023-01-29T00:11:24;8.80;88.90
76120;DHT22;64852;48.092;-1.640;2023-01-29T00:13:51;8.80;89.30
76120;DHT22;64852;48.092;-1.640;2023-01-29T00:16:17;8.80;89.70
76120;DHT22;64852;48.092;-1.640;2023-01-29T00:18:43;8.70;89.50
76120;DHT22;64852;48.092;-1.640;2023-01-29T00:21:10;8.80;89.00
76120;DHT22;64852;48.092;-1.640;2023-01-29T00:23:35;8.80;90.00
76120;DHT22;64852;48.092;-1.640;2023-01-29T00:26:01;8.70;89.70
76120;DHT22;64852;48.092;-1.640;2023-01-29T00:28:27;8.70;89.60
76120;DHT22;64852;48.092;-1.640;2023-01-29T00:30:52;8.70;90.10
76120;DHT22;64852;48.092;-1.640;2023-01-29T00:33:18;8.70;90.20
76120;DHT22;64852;48.092;-1.640;2023-01-29T00:35:43;8.80;90.00
76120;DHT22;64852;48.092;-1.640;2023-01-29T00:38:09;8.80;89.40
76120;DHT22;64852;48.092;-1.640;2023-01-29T00:40:38;8.70;88.80
76120;DHT22;64852;48.092;-1.640;2023-01-29T00:43:23;8.70;89.70
76120;DHT22;64852;48.092;-1.640;2023-01-29T00:46:07;8.70;89.80
76120;DHT22;64852;48.092;-1.640;2023-01-29T00:48:34;8.70;90.00
76120;DHT22;64852;48.092;-1.640;2023-01-29T00:51:00;8.70;90.30
76120;DHT22;64852;48.092;-1.640;2023-01-29T00:53:25;8.70;90.90
76120;DHT22;64852;48.092;-1.640;2023-01-29T00:55:51;8.70;90.60
76120;DHT22;64852;48.092;-1.640;2023-01-29T00:58:17;8.70;90.40
76120;DHT22;64852;48.092;-1.640;2023-01-29T01:00:50;8.70;90.50
76120;DHT22;64852;48.092;-1.640;2023-01-29T01:03:16;8.70;91.20
76120;DHT22;64852;48.092;-1.640;2023-01-29T01:05:42;8.80;90.90
76120;DHT22;64852;48.092;-1.640;2023-01-29T01:08:09;8.80;90.60
76120;DHT22;64852;48.092;-1.640;2023-01-29T01:11:04;8.70;90.20
76120;DHT22;64852;48.092;-1.640;2023-01-29T01:13:33;8.70;90.10
76120;DHT22;64852;48.092;-1.640;2023-01-29T01:15:59;8.70;88.40
76120;DHT22;64852;48.092;-1.640;2023-01-29T01:18:28;8.70;88.50
76120;DHT22;64852;48.092;-1.640;2023-01-29T01:20:56;8.60;88.80
76120;DHT22;64852;48.092;-1.640;2023-01-29T01:23:24;8.60;89.00
76120;DHT22;64852;48.092;-1.640;2023-01-29T01:25:49;8.60;89.60
76120;DHT22;64852;48.092;-1.640;2023-01-29T01:28:15;8.60;88.80
76120;DHT22;64852;48.092;-1.640;2023-01-29T01:30:41;8.50;89.10
76120;DHT22;64852;48.092;-1.640;2023-01-29T01:33:06;8.60;89.50
76120;DHT22;64852;48.092;-1.640;2023-01-29T01:35:32;8.60;88.80
76120;DHT22;64852;48.092;-1.640;2023-01-29T01:37:58;8.50;89.20
76120;DHT22;64852;48.092;-1.640;2023-01-29T01:40:25;8.50;90.10
76120;DHT22;64852;48.092;-1.640;2023-01-29T01:42:53;8.50;89.80
76120;DHT22;64852;48.092;-1.640;2023-01-29T01:45:32;8.50;90.00
76120;DHT22;64852;48.092;-1.640;2023-01-29T01:48:05;8.50;90.80
76120;DHT22;64852;48.092;-1.640;2023-01-29T01:50:40;8.60;90.70
76120;DHT22;64852;48.092;-1.640;2023-01-29T01:53:09;8.50;90.90
76120;DHT22;64852;48.092;-1.640;2023-01-29T01:55:40;8.60;91.50
76120;DHT22;64852;48.092;-1.640;2023-01-29T01:58:11;8.60;91.00
76120;DHT22;64852;48.092;-1.640;2023-01-29T02:00:40;8.60;90.30
76120;DHT22;64852;48.092;-1.640;2023-01-29T02:03:06;8.60;90.50
76120;DHT22;64852;48.092;-1.640;2023-01-29T02:05:54;8.50;90.50
76120;DHT22;64852;48.092;-1.640;2023-01-29T02:08:51;8.50;90.20
76120;DHT22;64852;48.092;-1.640;2023-01-29T02:11:37;8.60;90.10
76120;DHT22;64852;48.092;-1.640;2023-01-29T02:14:03;8.60;90.50
76120;DHT22;64852;48.092;-1.640;2023-01-29T02:16:29;8.50;90.10
76120;DHT22;64852;48.092;-1.640;2023-01-29T02:18:55;8.50;90.40
76120;DHT22;64852;48.092;-1.640;2023-01-29T02:27:23;8.40;89.80
76120;DHT22;64852;48.092;-1.640;2023-01-29T02:30:16;8.50;90.30
76120;DHT22;64852;48.092;-1.640;2023-01-29T02:32:59;8.40;90.10
76120;DHT22;64852;48.092;-1.640;2023-01-29T02:35:42;8.40;90.20
76120;DHT22;64852;48.092;-1.640;2023-01-29T02:40:54;8.40;90.40
76120;DHT22;64852;48.092;-1.640;2023-01-29T02:43:37;8.40;90.30
76120;DHT22;64852;48.092;-1.640;2023-01-29T02:46:16;8.40;90.40
76120;DHT22;64852;48.092;-1.640;2023-01-29T02:48:59;8.50;91.40
76120;DHT22;64852;48.092;-1.640;2023-01-29T02:54:12;8.40;91.00
76120;DHT22;64852;48.092;-1.640;2023-01-29T02:59:19;8.40;90.70
76120;DHT22;64852;48.092;-1.640;2023-01-29T03:02:02;8.30;90.10
76120;DHT22;64852;48.092;-1.640;2023-01-29T03:04:33;8.40;90.00
76120;DHT22;64852;48.092;-1.640;2023-01-29T03:07:22;8.30;89.90
76120;DHT22;64852;48.092;-1.640;2023-01-29T03:10:25;8.30;90.50
76120;DHT22;64852;48.092;-1.640;2023-01-29T03:13:28;8.30;90.80
76120;DHT22;64852;48.092;-1.640;2023-01-29T03:16:05;8.30;90.20
76120;DHT22;64852;48.092;-1.640;2023-01-29T03:18:39;8.40;90.40
76120;DHT22;64852;48.092;-1.640;2023-01-29T03:21:13;8.40;90.80
76120;DHT22;64852;48.092;-1.640;2023-01-29T03:23:59;8.30;90.90
76120;DHT22;64852;48.092;-1.640;2023-01-29T03:26:44;8.30;90.60
76120;DHT22;64852;48.092;-1.640;2023-01-29T03:29:30;8.30;89.20
76120;DHT22;64852;48.092;-1.640;2023-01-29T03:32:16;8.30;90.30
76120;DHT22;64852;48.092;-1.640;2023-01-29T03:34:49;8.30;90.50
76120;DHT22;64852;48.092;-1.640;2023-01-29T03:37:23;8.30;90.20
76120;DHT22;64852;48.092;-1.640;2023-01-29T03:39:50;8.30;88.50
76120;DHT22;64852;48.092;-1.640;2023-01-29T03:42:23;8.20;88.90
76120;DHT22;64852;48.092;-1.640;2023-01-29T03:45:07;8.10;89.80
76120;DHT22;64852;48.092;-1.640;2023-01-29T04:01:59;8.20;89.40
76120;DHT22;64852;48.092;-1.640;2023-01-29T04:04:29;8.20;87.40
76120;DHT22;64852;48.092;-1.640;2023-01-29T04:07:20;8.10;89.20
76120;DHT22;64852;48.092;-1.640;2023-01-29T04:10:06;8.10;89.10
76120;DHT22;64852;48.092;-1.640;2023-01-29T04:12:38;8.00;88.90
76120;DHT22;64852;48.092;-1.640;2023-01-29T04:15:08;8.10;90.00
76120;DHT22;64852;48.092;-1.640;2023-01-29T04:17:41;8.00;90.00
76120;DHT22;64852;48.092;-1.640;2023-01-29T04:20:08;8.10;90.20
76120;DHT22;64852;48.092;-1.640;2023-01-29T04:22:37;8.10;90.00
76120;DHT22;64852;48.092;-1.640;2023-01-29T04:25:09;8.10;90.00
76120;DHT22;64852;48.092;-1.640;2023-01-29T04:28:29;8.20;90.00
76120;DHT22;64852;48.092;-1.640;2023-01-29T04:31:00;8.20;90.30
76120;DHT22;64852;48.092;-1.640;2023-01-29T04:39:30;8.20;89.80
76120;DHT22;64852;48.092;-1.640;2023-01-29T04:42:19;8.20;88.70
76120;DHT22;64852;48.092;-1.640;2023-01-29T04:45:04;8.20;88.30
76120;DHT22;64852;48.092;-1.640;2023-01-29T04:50:25;8.00;89.80
76120;DHT22;64852;48.092;-1.640;2023-01-29T04:53:09;8.20;89.60
76120;DHT22;64852;48.092;-1.640;2023-01-29T04:55:47;8.20;90.40
76120;DHT22;64852;48.092;-1.640;2023-01-29T04:58:25;8.20;89.70
76120;DHT22;64852;48.092;-1.640;2023-01-29T05:00:53;8.10;88.50
76120;DHT22;64852;48.092;-1.640;2023-01-29T05:03:22;8.10;90.00
76120;DHT22;64852;48.092;-1.640;2023-01-29T05:05:49;8.20;89.50
76120;DHT22;64852;48.092;-1.640;2023-01-29T05:08:18;8.20;88.70
76120;DHT22;64852;48.092;-1.640;2023-01-29T05:10:47;8.10;89.10
76120;DHT22;64852;48.092;-1.640;2023-01-29T05:13:14;8.20;89.20
76120;DHT22;64852;48.092;-1.640;2023-01-29T05:18:11;8.20;88.40
76120;DHT22;64852;48.092;-1.640;2023-01-29T05:20:39;8.10;88.60
76120;DHT22;64852;48.092;-1.640;2023-01-29T05:23:14;8.20;89.70
76120;DHT22;64852;48.092;-1.640;2023-01-29T05:25:40;8.10;90.00
76120;DHT22;64852;48.092;-1.640;2023-01-29T05:28:05;8.20;89.40
76120;DHT22;64852;48.092;-1.640;2023-01-29T05:30:45;8.20;89.10
76120;DHT22;64852;48.092;-1.640;2023-01-29T05:33:20;8.20;89.90
76120;DHT22;64852;48.092;-1.640;2023-01-29T05:35:46;8.30;89.70
76120;DHT22;64852;48.092;-1.640;2023-01-29T05:38:13;8.30;89.90
76120;DHT22;64852;48.092;-1.640;2023-01-29T05:40:39;8.30;89.30
76120;DHT22;64852;48.092;-1.640;2023-01-29T05:43:05;8.30;89.70
76120;DHT22;64852;48.092;-1.640;2023-01-29T05:45:38;8.40;89.00
76120;DHT22;64852;48.092;-1.640;2023-01-29T05:48:04;8.30;88.90
76120;DHT22;64852;48.092;-1.640;2023-01-29T05:50:29;8.30;89.00
76120;DHT22;64852;48.092;-1.640;2023-01-29T05:52:57;8.30;89.20
76120;DHT22;64852;48.092;-1.640;2023-01-29T05:55:22;8.30;88.90
76120;DHT22;64852;48.092;-1.640;2023-01-29T05:57:48;8.30;89.00
76120;DHT22;64852;48.092;-1.640;2023-01-29T06:00:14;8.30;89.00
76120;DHT22;64852;48.092;-1.640;2023-01-29T06:02:40;8.20;88.10
76120;DHT22;64852;48.092;-1.640;2023-01-29T06:05:06;8.30;89.30
76120;DHT22;64852;48.092;-1.640;2023-01-29T06:07:32;8.30;88.70
76120;DHT22;64852;48.092;-1.640;2023-01-29T06:09:58;8.30;89.90
76120;DHT22;64852;48.092;-1.640;2023-01-29T06:12:25;8.20;90.20
76120;DHT22;64852;48.092;-1.640;2023-01-29T06:14:50;8.30;90.40
76120;DHT22;64852;48.092;-1.640;2023-01-29T06:17:16;8.40;90.50
76120;DHT22;64852;48.092;-1.640;2023-01-29T06:19:42;8.40;90.20
76120;DHT22;64852;48.092;-1.640;2023-01-29T06:22:07;8.40;90.20
76120;DHT22;64852;48.092;-1.640;2023-01-29T06:24:33;8.40;89.90
76120;DHT22;64852;48.092;-1.640;2023-01-29T06:26:58;8.40;89.60
76120;DHT22;64852;48.092;-1.640;2023-01-29T06:29:24;8.40;89.40
76120;DHT22;64852;48.092;-1.640;2023-01-29T06:31:50;8.40;89.10
76120;DHT22;64852;48.092;-1.640;2023-01-29T06:34:15;8.40;89.80
76120;DHT22;64852;48.092;-1.640;2023-01-29T06:36:41;8.30;90.00
76120;DHT22;64852;48.092;-1.640;2023-01-29T06:39:07;8.40;89.90
76120;DHT22;64852;48.092;-1.640;2023-01-29T06:41:33;8.40;89.80
76120;DHT22;64852;48.092;-1.640;2023-01-29T06:43:59;8.30;90.00
76120;DHT22;64852;48.092;-1.640;2023-01-29T06:46:25;8.40;90.30
76120;DHT22;64852;48.092;-1.640;2023-01-29T06:48:50;8.50;90.60
76120;DHT22;64852;48.092;-1.640;2023-01-29T06:51:16;8.50;90.50
76120;DHT22;64852;48.092;-1.640;2023-01-29T06:53:42;8.50;90.30
76120;DHT22;64852;48.092;-1.640;2023-01-29T06:56:07;8.50;89.50
76120;DHT22;64852;48.092;-1.640;2023-01-29T06:58:36;8.50;89.40
76120;DHT22;64852;48.092;-1.640;2023-01-29T07:03:29;8.50;90.20
76120;DHT22;64852;48.092;-1.640;2023-01-29T07:05:54;8.60;89.60
76120;DHT22;64852;48.092;-1.640;2023-01-29T07:08:20;8.50;90.10
76120;DHT22;64852;48.092;-1.640;2023-01-29T07:10:47;8.50;90.20
76120;DHT22;64852;48.092;-1.640;2023-01-29T07:13:13;8.50;90.20
76120;DHT22;64852;48.092;-1.640;2023-01-29T07:15:39;8.50;90.10
76120;DHT22;64852;48.092;-1.640;2023-01-29T07:18:05;8.50;90.10
76120;DHT22;64852;48.092;-1.640;2023-01-29T07:20:40;8.50;90.10
76120;DHT22;64852;48.092;-1.640;2023-01-29T07:23:08;8.50;89.60
76120;DHT22;64852;48.092;-1.640;2023-01-29T07:25:35;8.50;90.30
76120;DHT22;64852;48.092;-1.640;2023-01-29T07:28:01;8.50;90.30
76120;DHT22;64852;48.092;-1.640;2023-01-29T07:30:27;8.50;90.00
76120;DHT22;64852;48.092;-1.640;2023-01-29T07:32:52;8.50;87.70
76120;DHT22;64852;48.092;-1.640;2023-01-29T07:35:18;8.40;87.20
76120;DHT22;64852;48.092;-1.640;2023-01-29T07:37:43;8.40;87.60
76120;DHT22;64852;48.092;-1.640;2023-01-29T07:40:10;8.40;88.50
76120;DHT22;64852;48.092;-1.640;2023-01-29T07:42:37;8.40;89.40
76120;DHT22;64852;48.092;-1.640;2023-01-29T07:45:05;8.40;90.10
76120;DHT22;64852;48.092;-1.640;2023-01-29T07:47:31;8.40;89.30
76120;DHT22;64852;48.092;-1.640;2023-01-29T07:49:56;8.40;89.40
76120;DHT22;64852;48.092;-1.640;2023-01-29T07:52:22;8.40;88.90
76120;DHT22;64852;48.092;-1.640;2023-01-29T07:54:47;8.40;88.40
76120;DHT22;64852;48.092;-1.640;2023-01-29T07:57:13;8.40;87.90
76120;DHT22;64852;48.092;-1.640;2023-01-29T07:59:39;8.50;87.40
76120;DHT22;64852;48.092;-1.640;2023-01-29T08:02:04;8.40;87.80
76120;DHT22;64852;48.092;-1.640;2023-01-29T08:04:30;8.40;87.90
76120;DHT22;64852;48.092;-1.640;2023-01-29T08:06:56;8.40;87.00
76120;DHT22;64852;48.092;-1.640;2023-01-29T08:09:21;8.40;87.40
76120;DHT22;64852;48.092;-1.640;2023-01-29T08:11:47;8.30;87.10
76120;DHT22;64852;48.092;-1.640;2023-01-29T08:14:12;8.40;88.30
76120;DHT22;64852;48.092;-1.640;2023-01-29T08:16:38;8.40;87.00
76120;DHT22;64852;48.092;-1.640;2023-01-29T08:19:04;8.50;88.20
76120;DHT22;64852;48.092;-1.640;2023-01-29T08:21:29;8.40;88.60
76120;DHT22;64852;48.092;-1.640;2023-01-29T08:23:55;8.50;88.40
76120;DHT22;64852;48.092;-1.640;2023-01-29T08:26:20;8.40;87.80
76120;DHT22;64852;48.092;-1.640;2023-01-29T08:28:46;8.40;86.80
76120;DHT22;64852;48.092;-1.640;2023-01-29T08:31:18;8.40;86.50
76120;DHT22;64852;48.092;-1.640;2023-01-29T08:33:45;8.40;86.90
76120;DHT22;64852;48.092;-1.640;2023-01-29T08:36:11;8.40;87.80
76120;DHT22;64852;48.092;-1.640;2023-01-29T08:38:37;8.50;88.40
76120;DHT22;64852;48.092;-1.640;2023-01-29T08:41:02;8.40;89.00
76120;DHT22;64852;48.092;-1.640;2023-01-29T08:43:28;8.50;88.80
76120;DHT22;64852;48.092;-1.640;2023-01-29T08:45:54;8.50;88.40
76120;DHT22;64852;48.092;-1.640;2023-01-29T08:48:19;8.50;89.60
76120;DHT22;64852;48.092;-1.640;2023-01-29T08:50:45;8.40;89.40
76120;DHT22;64852;48.092;-1.640;2023-01-29T08:53:11;8.30;89.40
76120;DHT22;64852;48.092;-1.640;2023-01-29T08:55:38;8.30;89.50
76120;DHT22;64852;48.092;-1.640;2023-01-29T08:58:05;8.30;89.60
76120;DHT22;64852;48.092;-1.640;2023-01-29T09:00:32;8.40;89.70
76120;DHT22;64852;48.092;-1.640;2023-01-29T09:02:58;8.40;88.30
76120;DHT22;64852;48.092;-1.640;2023-01-29T09:05:28;8.50;88.90
76120;DHT22;64852;48.092;-1.640;2023-01-29T09:07:57;8.50;88.30
76120;DHT22;64852;48.092;-1.640;2023-01-29T09:10:23;8.60;89.20
76120;DHT22;64852;48.092;-1.640;2023-01-29T09:12:49;8.60;88.80
76120;DHT22;64852;48.092;-1.640;2023-01-29T09:15:14;8.40;89.70
76120;DHT22;64852;48.092;-1.640;2023-01-29T09:17:40;8.50;88.90
76120;DHT22;64852;48.092;-1.640;2023-01-29T09:20:09;8.60;89.70
76120;DHT22;64852;48.092;-1.640;2023-01-29T09:22:36;8.50;88.40
76120;DHT22;64852;48.092;-1.640;2023-01-29T09:25:05;8.50;89.10
76120;DHT22;64852;48.092;-1.640;2023-01-29T09:27:32;8.70;89.40
76120;DHT22;64852;48.092;-1.640;2023-01-29T09:30:06;8.70;90.00
76120;DHT22;64852;48.092;-1.640;2023-01-29T09:32:34;8.70;89.40
76120;DHT22;64852;48.092;-1.640;2023-01-29T09:35:00;8.70;90.30
76120;DHT22;64852;48.092;-1.640;2023-01-29T09:37:27;8.80;90.10
76120;DHT22;64852;48.092;-1.640;2023-01-29T09:39:57;9.00;89.70
76120;DHT22;64852;48.092;-1.640;2023-01-29T09:42:25;9.30;89.50
76120;DHT22;64852;48.092;-1.640;2023-01-29T09:45:05;9.20;90.10
76120;DHT22;64852;48.092;-1.640;2023-01-29T09:47:39;9.00;90.20
76120;DHT22;64852;48.092;-1.640;2023-01-29T09:50:20;9.00;90.40
76120;DHT22;64852;48.092;-1.640;2023-01-29T09:55:44;9.20;88.60
76120;DHT22;64852;48.092;-1.640;2023-01-29T10:12:01;8.70;88.90
76120;DHT22;64852;48.092;-1.640;2023-01-29T10:25:41;8.70;86.40
76120;DHT22;64852;48.092;-1.640;2023-01-29T10:28:27;8.70;89.50
76120;DHT22;64852;48.092;-1.640;2023-01-29T10:31:09;8.80;87.30
76120;DHT22;64852;48.092;-1.640;2023-01-29T10:33:41;8.90;89.50
76120;DHT22;64852;48.092;-1.640;2023-01-29T10:36:16;8.90;90.00
76120;DHT22;64852;48.092;-1.640;2023-01-29T10:38:46;9.00;89.50
76120;DHT22;64852;48.092;-1.640;2023-01-29T10:41:41;9.10;89.10
76120;DHT22;64852;48.092;-1.640;2023-01-29T11:00:54;9.30;86.40
76120;DHT22;64852;48.092;-1.640;2023-01-29T11:03:22;9.00;86.20
76120;DHT22;64852;48.092;-1.640;2023-01-29T11:08:33;9.00;84.20
76120;DHT22;64852;48.092;-1.640;2023-01-29T11:11:18;8.70;86.40
76120;DHT22;64852;48.092;-1.640;2023-01-29T11:16:15;9.00;87.50
76120;DHT22;64852;48.092;-1.640;2023-01-29T11:21:17;9.30;84.90
76120;DHT22;64852;48.092;-1.640;2023-01-29T11:23:42;9.30;85.60
76120;DHT22;64852;48.092;-1.640;2023-01-29T11:26:12;9.40;85.30
76120;DHT22;64852;48.092;-1.640;2023-01-29T11:28:44;8.70;84.90
76120;DHT22;64852;48.092;-1.640;2023-01-29T11:31:36;8.40;88.50
76120;DHT22;64852;48.092;-1.640;2023-01-29T11:34:15;8.40;90.40
76120;DHT22;64852;48.092;-1.640;2023-01-29T11:36:42;8.60;91.00
76120;DHT22;64852;48.092;-1.640;2023-01-29T11:39:11;8.90;90.20
76120;DHT22;64852;48.092;-1.640;2023-01-29T11:44:42;8.20;88.60
76120;DHT22;64852;48.092;-1.640;2023-01-29T11:49:47;9.30;85.70
76120;DHT22;64852;48.092;-1.640;2023-01-29T11:52:16;9.20;86.90
76120;DHT22;64852;48.092;-1.640;2023-01-29T11:54:46;9.10;87.90
76120;DHT22;64852;48.092;-1.640;2023-01-29T11:57:25;9.10;87.70
76120;DHT22;64852;48.092;-1.640;2023-01-29T11:59:52;9.10;86.90
76120;DHT22;64852;48.092;-1.640;2023-01-29T12:04:47;9.50;85.60
76120;DHT22;64852;48.092;-1.640;2023-01-29T12:07:15;9.50;85.30
76120;DHT22;64852;48.092;-1.640;2023-01-29T12:09:52;9.40;85.30
76120;DHT22;64852;48.092;-1.640;2023-01-29T12:12:31;9.40;85.10
76120;DHT22;64852;48.092;-1.640;2023-01-29T12:15:17;9.40;85.90
76120;DHT22;64852;48.092;-1.640;2023-01-29T12:18:06;9.50;85.80
76120;DHT22;64852;48.092;-1.640;2023-01-29T12:20:40;9.60;83.90
76120;DHT22;64852;48.092;-1.640;2023-01-29T12:26:12;9.60;82.60
76120;DHT22;64852;48.092;-1.640;2023-01-29T12:31:59;9.50;83.20
76120;DHT22;64852;48.092;-1.640;2023-01-29T12:39:54;8.90;85.00
76120;DHT22;64852;48.092;-1.640;2023-01-29T12:42:24;8.90;86.50
76120;DHT22;64852;48.092;-1.640;2023-01-29T12:44:59;8.70;86.30
76120;DHT22;64852;48.092;-1.640;2023-01-29T12:47:39;8.90;87.90
76120;DHT22;64852;48.092;-1.640;2023-01-29T12:50:18;9.10;89.20
76120;DHT22;64852;48.092;-1.640;2023-01-29T12:52:55;9.30;87.10
76120;DHT22;64852;48.092;-1.640;2023-01-29T12:55:43;9.40;85.00
76120;DHT22;64852;48.092;-1.640;2023-01-29T12:58:14;9.20;87.10
76120;DHT22;64852;48.092;-1.640;2023-01-29T13:00:46;9.40;87.10
76120;DHT22;64852;48.092;-1.640;2023-01-29T13:06:09;8.70;86.20
76120;DHT22;64852;48.092;-1.640;2023-01-29T13:08:51;8.80;89.30
76120;DHT22;64852;48.092;-1.640;2023-01-29T13:11:25;9.10;89.60
76120;DHT22;64852;48.092;-1.640;2023-01-29T13:14:11;9.20;89.60
76120;DHT22;64852;48.092;-1.640;2023-01-29T13:16:44;9.20;87.30
76120;DHT22;64852;48.092;-1.640;2023-01-29T13:19:37;8.90;88.20
76120;DHT22;64852;48.092;-1.640;2023-01-29T13:22:17;8.90;90.00
76120;DHT22;64852;48.092;-1.640;2023-01-29T13:24:45;9.10;87.60
76120;DHT22;64852;48.092;-1.640;2023-01-29T13:27:28;9.30;87.90
76120;DHT22;64852;48.092;-1.640;2023-01-29T13:29:55;9.20;87.30
76120;DHT22;64852;48.092;-1.640;2023-01-29T13:32:32;9.10;87.40
76120;DHT22;64852;48.092;-1.640;2023-01-29T13:35:02;9.20;89.30
76120;DHT22;64852;48.092;-1.640;2023-01-29T13:37:39;9.20;89.20
76120;DHT22;64852;48.092;-1.640;2023-01-29T13:40:17;9.00;88.80
76120;DHT22;64852;48.092;-1.640;2023-01-29T13:42:47;9.20;89.80
76120;DHT22;64852;48.092;-1.640;2023-01-29T13:45:23;9.20;86.90
76120;DHT22;64852;48.092;-1.640;2023-01-29T13:47:51;8.70;88.30
76120;DHT22;64852;48.092;-1.640;2023-01-29T13:50:29;8.70;90.30
76120;DHT22;64852;48.092;-1.640;2023-01-29T13:52:56;8.80;90.40
76120;DHT22;64852;48.092;-1.640;2023-01-29T13:55:35;8.40;91.30
76120;DHT22;64852;48.092;-1.640;2023-01-29T13:58:03;8.30;92.30
76120;DHT22;64852;48.092;-1.640;2023-01-29T14:13:41;8.70;92.40
76120;DHT22;64852;48.092;-1.640;2023-01-29T14:18:47;8.80;92.60
76120;DHT22;64852;48.092;-1.640;2023-01-29T14:23:52;8.90;91.80
76120;DHT22;64852;48.092;-1.640;2023-01-29T14:26:32;9.00;92.10
76120;DHT22;64852;48.092;-1.640;2023-01-29T14:31:48;8.60;91.50
76120;DHT22;64852;48.092;-1.640;2023-01-29T14:37:00;8.30;94.10
76120;DHT22;64852;48.092;-1.640;2023-01-29T14:39:31;8.30;94.40
76120;DHT22;64852;48.092;-1.640;2023-01-29T14:41:59;8.50;94.70
76120;DHT22;64852;48.092;-1.640;2023-01-29T14:44:45;8.50;94.90
76120;DHT22;64852;48.092;-1.640;2023-01-29T14:49:53;8.80;94.60
76120;DHT22;64852;48.092;-1.640;2023-01-29T14:52:22;8.90;94.30
76120;DHT22;64852;48.092;-1.640;2023-01-29T14:54:51;8.70;94.80
76120;DHT22;64852;48.092;-1.640;2023-01-29T14:57:17;8.50;95.50
76120;DHT22;64852;48.092;-1.640;2023-01-29T14:59:56;8.40;95.90
76120;DHT22;64852;48.092;-1.640;2023-01-29T15:02:44;8.40;96.30
76120;DHT22;64852;48.092;-1.640;2023-01-29T15:05:17;8.40;97.20
76120;DHT22;64852;48.092;-1.640;2023-01-29T15:07:52;8.40;97.70
76120;DHT22;64852;48.092;-1.640;2023-01-29T15:10:25;8.50;97.10
76120;DHT22;64852;48.092;-1.640;2023-01-29T15:13:00;8.50;97.20
76120;DHT22;64852;48.092;-1.640;2023-01-29T15:20:42;8.70;96.30
76120;DHT22;64852;48.092;-1.640;2023-01-29T15:23:41;8.70;95.90
76120;DHT22;64852;48.092;-1.640;2023-01-29T15:26:27;8.80;95.50
76120;DHT22;64852;48.092;-1.640;2023-01-29T15:28:57;8.50;96.20
76120;DHT22;64852;48.092;-1.640;2023-01-29T15:31:23;8.40;98.00
76120;DHT22;64852;48.092;-1.640;2023-01-29T15:33:51;8.40;97.60
76120;DHT22;64852;48.092;-1.640;2023-01-29T15:36:20;8.20;99.20
76120;DHT22;64852;48.092;-1.640;2023-01-29T15:38:47;8.40;99.50
76120;DHT22;64852;48.092;-1.640;2023-01-29T15:41:20;8.40;98.50
76120;DHT22;64852;48.092;-1.640;2023-01-29T15:43:50;8.70;97.40
76120;DHT22;64852;48.092;-1.640;2023-01-29T15:46:24;9.00;94.70
76120;DHT22;64852;48.092;-1.640;2023-01-29T15:48:52;9.20;94.60
76120;DHT22;64852;48.092;-1.640;2023-01-29T15:51:24;9.10;94.80
76120;DHT22;64852;48.092;-1.640;2023-01-29T15:53:51;9.30;94.60
76120;DHT22;64852;48.092;-1.640;2023-01-29T15:56:23;9.10;94.90
76120;DHT22;64852;48.092;-1.640;2023-01-29T15:58:52;9.40;93.30
76120;DHT22;64852;48.092;-1.640;2023-01-29T16:01:18;9.50;93.00
76120;DHT22;64852;48.092;-1.640;2023-01-29T16:03:47;9.70;92.60
76120;DHT22;64852;48.092;-1.640;2023-01-29T16:06:13;10.00;92.30
76120;DHT22;64852;48.092;-1.640;2023-01-29T16:08:40;9.80;91.90
76120;DHT22;64852;48.092;-1.640;2023-01-29T16:11:07;9.60;92.40
76120;DHT22;64852;48.092;-1.640;2023-01-29T16:13:36;9.50;92.60
76120;DHT22;64852;48.092;-1.640;2023-01-29T16:16:26;9.50;92.70
76120;DHT22;64852;48.092;-1.640;2023-01-29T16:18:52;9.60;92.30
76120;DHT22;64852;48.092;-1.640;2023-01-29T16:21:36;9.50;92.80
76120;DHT22;64852;48.092;-1.640;2023-01-29T16:24:11;9.30;92.80
76120;DHT22;64852;48.092;-1.640;2023-01-29T16:26:45;9.20;93.90
76120;DHT22;64852;48.092;-1.640;2023-01-29T16:29:23;9.10;94.50
76120;DHT22;64852;48.092;-1.640;2023-01-29T16:31:54;9.20;94.60
76120;DHT22;64852;48.092;-1.640;2023-01-29T16:34:42;9.10;94.80
76120;DHT22;64852;48.092;-1.640;2023-01-29T16:37:33;9.20;94.30
76120;DHT22;64852;48.092;-1.640;2023-01-29T16:40:15;9.00;94.20
76120;DHT22;64852;48.092;-1.640;2023-01-29T16:42:41;8.80;96.30
76120;DHT22;64852;48.092;-1.640;2023-01-29T16:45:27;9.00;95.20
76120;DHT22;64852;48.092;-1.640;2023-01-29T16:48:00;8.60;95.40
76120;DHT22;64852;48.092;-1.640;2023-01-29T16:50:34;8.90;97.20
76120;DHT22;64852;48.092;-1.640;2023-01-29T16:53:19;8.60;99.30
76120;DHT22;64852;48.092;-1.640;2023-01-29T16:55:48;8.50;99.80
76120;DHT22;64852;48.092;-1.640;2023-01-29T16:58:20;8.60;99.90
76120;DHT22;64852;48.092;-1.640;2023-01-29T17:00:52;8.70;99.30
76120;DHT22;64852;48.092;-1.640;2023-01-29T17:03:19;8.80;98.90
76120;DHT22;64852;48.092;-1.640;2023-01-29T17:05:45;8.70;99.90
76120;DHT22;64852;48.092;-1.640;2023-01-29T17:08:23;8.60;99.90
76120;DHT22;64852;48.092;-1.640;2023-01-29T17:10:49;8.70;99.90
76120;DHT22;64852;48.092;-1.640;2023-01-29T17:13:34;9.00;98.60
76120;DHT22;64852;48.092;-1.640;2023-01-29T17:16:02;8.90;98.90
76120;DHT22;64852;48.092;-1.640;2023-01-29T17:18:38;8.90;99.50
76120;DHT22;64852;48.092;-1.640;2023-01-29T17:21:04;8.90;99.40
76120;DHT22;64852;48.092;-1.640;2023-01-29T17:23:30;8.80;99.90
76120;DHT22;64852;48.092;-1.640;2023-01-29T17:25:55;8.80;99.90
76120;DHT22;64852;48.092;-1.640;2023-01-29T17:28:21;8.60;99.90
76120;DHT22;64852;48.092;-1.640;2023-01-29T17:30:47;8.80;99.90
76120;DHT22;64852;48.092;-1.640;2023-01-29T17:33:15;9.10;98.30
76120;DHT22;64852;48.092;-1.640;2023-01-29T17:35:43;9.70;98.00
76120;DHT22;64852;48.092;-1.640;2023-01-29T17:38:14;9.30;97.60
76120;DHT22;64852;48.092;-1.640;2023-01-29T17:40:48;9.50;96.00
76120;DHT22;64852;48.092;-1.640;2023-01-29T17:43:15;7.40;95.30
76120;DHT22;64852;48.092;-1.640;2023-01-29T17:45:41;9.40;97.00
76120;DHT22;64852;48.092;-1.640;2023-01-29T17:48:17;9.40;97.20
76120;DHT22;64852;48.092;-1.640;2023-01-29T17:50:44;9.50;96.10
76120;DHT22;64852;48.092;-1.640;2023-01-29T17:53:16;9.60;96.40
76120;DHT22;64852;48.092;-1.640;2023-01-29T17:55:42;9.70;96.20
76120;DHT22;64852;48.092;-1.640;2023-01-29T17:58:23;9.70;96.10
76120;DHT22;64852;48.092;-1.640;2023-01-29T18:00:49;9.40;96.90
76120;DHT22;64852;48.092;-1.640;2023-01-29T18:03:16;9.10;98.80
76120;DHT22;64852;48.092;-1.640;2023-01-29T18:05:41;9.30;98.00
76120;DHT22;64852;48.092;-1.640;2023-01-29T18:08:27;9.30;97.50
76120;DHT22;64852;48.092;-1.640;2023-01-29T18:10:54;9.30;97.50
76120;DHT22;64852;48.092;-1.640;2023-01-29T18:13:20;9.50;97.20
76120;DHT22;64852;48.092;-1.640;2023-01-29T18:15:45;9.60;96.90
76120;DHT22;64852;48.092;-1.640;2023-01-29T18:18:13;9.50;97.10
76120;DHT22;64852;48.092;-1.640;2023-01-29T18:20:40;9.60;96.00
76120;DHT22;64852;48.092;-1.640;2023-01-29T18:23:07;9.70;95.10
76120;DHT22;64852;48.092;-1.640;2023-01-29T18:25:33;9.70;94.80